createdAt,value
2023-04-26T00:00:16.478Z,1007.85
2023-04-26T00:05:17.395Z,1007.89
2023-04-26T00:10:18.130Z,1007.88
2023-04-26T00:15:18.844Z,1007.88
2023-04-26T00:20:19.550Z,1007.92
2023-04-26T00:25:20.278Z,1007.91
2023-04-26T00:30:20.961Z,1007.94
2023-04-26T00:35:21.679Z,1007.95
2023-04-26T00:40:22.373Z,1007.92
2023-04-26T00:45:23.094Z,1007.91
2023-04-26T00:50:23.780Z,1007.93
2023-04-26T00:55:24.524Z,1007.90
2023-04-26T01:00:25.214Z,1007.95
2023-04-26T01:05:25.970Z,1007.95
2023-04-26T01:10:26.700Z,1008.01
2023-04-26T01:15:27.412Z,1007.95
2023-04-26T01:20:28.137Z,1007.99
2023-04-26T01:25:28.874Z,1008.05
2023-04-26T01:30:29.591Z,1008.08
2023-04-26T01:35:30.316Z,1008.13
2023-04-26T01:40:31.123Z,1008.20
2023-04-26T01:45:31.779Z,1008.24
2023-04-26T01:50:32.549Z,1008.22
2023-04-26T01:55:33.210Z,1008.28
2023-04-26T02:00:33.923Z,1008.24
2023-04-26T02:05:34.607Z,1008.23
2023-04-26T02:10:35.310Z,1008.24
2023-04-26T02:15:36.066Z,1008.24
2023-04-26T02:20:36.810Z,1008.24
2023-04-26T02:25:37.532Z,1008.21
2023-04-26T02:30:38.225Z,1008.19
2023-04-26T02:35:38.959Z,1008.20
2023-04-26T02:40:39.648Z,1008.20
2023-04-26T02:45:40.361Z,1008.21
2023-04-26T02:50:41.071Z,1008.17
2023-04-26T02:55:41.812Z,1008.15
2023-04-26T03:00:42.506Z,1008.18
2023-04-26T03:05:43.200Z,1008.18
2023-04-26T03:10:43.853Z,1008.21
2023-04-26T03:15:44.587Z,1008.23
2023-04-26T03:20:45.220Z,1008.25
2023-04-26T03:25:45.886Z,1008.26
2023-04-26T03:30:46.530Z,1008.28
2023-04-26T03:35:47.217Z,1008.33
2023-04-26T03:40:47.844Z,1008.33
2023-04-26T03:45:48.538Z,1008.35
2023-04-26T03:50:49.201Z,1008.41
2023-04-26T03:55:49.875Z,1008.41
2023-04-26T04:00:50.564Z,1008.47
2023-04-26T04:05:51.209Z,1008.53
2023-04-26T04:10:51.911Z,1008.50
2023-04-26T04:15:52.576Z,1008.51
2023-04-26T04:20:53.222Z,1008.56
2023-04-26T04:25:53.904Z,1008.59
2023-04-26T04:30:54.816Z,1008.56
2023-04-26T04:36:02.459Z,1008.65
2023-04-26T04:40:56.076Z,1008.67
2023-04-26T04:45:56.729Z,1008.68
2023-04-26T04:50:57.403Z,1008.74
2023-04-26T04:55:58.034Z,1008.73
2023-04-26T05:00:58.693Z,1008.84
2023-04-26T05:05:59.373Z,1008.84
2023-04-26T05:11:00.022Z,1008.86
2023-04-26T05:16:00.704Z,1008.91
2023-04-26T05:21:01.361Z,1009.01
2023-04-26T05:26:01.985Z,1009.04
2023-04-26T05:31:02.658Z,1009.10
2023-04-26T05:36:03.318Z,1009.16
2023-04-26T05:41:03.991Z,1009.20
2023-04-26T05:46:04.698Z,1009.19
2023-04-26T05:51:05.404Z,1009.25
2023-04-26T05:56:06.082Z,1009.23
2023-04-26T06:01:06.710Z,1009.24
2023-04-26T06:06:07.357Z,1009.29
2023-04-26T06:11:08.111Z,1009.32
2023-04-26T06:16:08.704Z,1009.37
2023-04-26T06:21:09.358Z,1009.36
2023-04-26T06:26:10.047Z,1009.34
2023-04-26T06:31:10.684Z,1009.33
2023-04-26T06:36:11.376Z,1009.37
2023-04-26T06:41:11.989Z,1009.39
2023-04-26T06:46:12.807Z,1009.50
2023-04-26T06:51:13.440Z,1009.47
2023-04-26T06:56:14.088Z,1009.49
2023-04-26T07:01:14.846Z,1009.48
2023-04-26T07:06:15.458Z,1009.43
2023-04-26T07:11:16.117Z,1009.51
2023-04-26T07:16:16.902Z,1009.53
2023-04-26T07:21:17.550Z,1009.59
2023-04-26T07:26:18.162Z,1009.57
2023-04-26T07:31:18.816Z,1009.60
2023-04-26T07:36:19.632Z,1009.60
2023-04-26T07:41:20.227Z,1009.65
2023-04-26T07:46:20.947Z,1009.64
2023-04-26T07:51:21.694Z,1009.68
2023-04-26T07:56:22.293Z,1009.75
2023-04-26T08:01:22.941Z,1009.69
2023-04-26T08:06:23.809Z,1009.71
2023-04-26T08:11:24.509Z,1009.74
2023-04-26T08:16:25.212Z,1009.81
2023-04-26T08:21:25.899Z,1009.89
2023-04-26T08:26:26.526Z,1009.85
2023-04-26T08:31:27.278Z,1009.85
2023-04-26T08:36:27.907Z,1009.86
2023-04-26T08:41:28.533Z,1009.82
2023-04-26T08:46:29.229Z,1009.90
2023-04-26T08:51:29.948Z,1009.90
2023-04-26T08:56:30.551Z,1009.84
2023-04-26T09:01:31.252Z,1009.92
2023-04-26T09:06:31.852Z,1009.94
2023-04-26T09:11:32.579Z,1010.00
2023-04-26T09:16:33.264Z,1010.01
2023-04-26T09:21:33.894Z,1010.02
2023-04-26T09:26:34.538Z,1009.93
2023-04-26T09:31:35.295Z,1009.98
2023-04-26T09:36:35.940Z,1009.93
2023-04-26T09:41:36.590Z,1009.93
2023-04-26T09:46:37.253Z,1009.96
2023-04-26T09:51:37.955Z,1009.93
2023-04-26T09:56:38.585Z,1009.96
2023-04-26T10:01:39.339Z,1009.97
2023-04-26T10:06:39.950Z,1009.95
2023-04-26T10:11:40.620Z,1010.01
2023-04-26T10:16:41.318Z,1009.97
2023-04-26T10:21:41.955Z,1010.01
2023-04-26T10:26:42.692Z,1009.98
2023-04-26T10:31:43.381Z,1010.05
2023-04-26T10:36:51.001Z,1010.09
2023-04-26T10:41:44.656Z,1010.16
2023-04-26T10:46:45.334Z,1010.15
2023-04-26T10:51:46.029Z,1010.13
2023-04-26T10:56:46.650Z,1010.10
2023-04-26T11:01:47.384Z,1010.13
2023-04-26T11:06:47.981Z,1010.10
2023-04-26T11:11:48.655Z,1010.08
2023-04-26T11:16:49.285Z,1010.10
2023-04-26T11:21:49.937Z,1010.09
2023-04-26T11:26:50.593Z,1010.00
2023-04-26T11:31:51.369Z,1010.02
2023-04-26T11:36:52.044Z,1010.01
2023-04-26T11:41:52.699Z,1010.09
2023-04-26T11:46:53.440Z,1010.04
2023-04-26T11:51:54.067Z,1010.08
2023-04-26T11:56:54.729Z,1010.06
2023-04-26T12:01:55.451Z,1010.12
2023-04-26T12:06:56.066Z,1010.13
2023-04-26T12:11:56.722Z,1010.16
2023-04-26T12:16:57.437Z,1010.13
2023-04-26T12:21:58.054Z,1010.22
2023-04-26T12:27:00.309Z,1010.19
2023-04-26T12:31:59.475Z,1010.20
2023-04-26T12:37:00.194Z,1010.19
2023-04-26T12:42:00.851Z,1010.23
2023-04-26T12:47:01.487Z,1010.22
2023-04-26T12:52:02.116Z,1010.23
2023-04-26T12:57:02.789Z,1010.25
2023-04-26T13:02:03.628Z,1010.21
2023-04-26T13:07:04.281Z,1010.15
2023-04-26T13:12:04.942Z,1010.16
2023-04-26T13:17:05.607Z,1010.15
2023-04-26T13:22:06.230Z,1010.17
2023-04-26T13:27:06.888Z,1010.18
2023-04-26T13:32:07.568Z,1010.14
2023-04-26T13:37:08.200Z,1010.22
2023-04-26T13:42:08.856Z,1010.22
2023-04-26T13:47:09.510Z,1010.28
2023-04-26T13:52:10.190Z,1010.29
2023-04-26T13:57:10.813Z,1010.36
2023-04-26T14:02:11.539Z,1010.33
2023-04-26T14:07:12.255Z,1010.42
2023-04-26T14:12:12.897Z,1010.39
2023-04-26T14:17:13.594Z,1010.41
2023-04-26T14:22:14.233Z,1010.39
2023-04-26T14:27:14.898Z,1010.34
2023-04-26T14:32:15.678Z,1010.36
2023-04-26T14:37:16.313Z,1010.41
2023-04-26T14:42:16.967Z,1010.40
2023-04-26T14:47:17.651Z,1010.41
2023-04-26T14:52:18.290Z,1010.45
2023-04-26T14:57:18.951Z,1010.41
2023-04-26T15:02:19.718Z,1010.43
2023-04-26T15:07:31.299Z,1010.42
2023-04-26T15:12:21.904Z,1010.36
2023-04-26T15:17:21.541Z,1010.35
2023-04-26T15:22:22.197Z,1010.31
2023-04-26T15:27:22.982Z,1010.29
2023-04-26T15:32:23.603Z,1010.38
2023-04-26T15:37:24.219Z,1010.33
2023-04-26T15:42:24.872Z,1010.40
2023-04-26T15:47:25.634Z,1010.41
2023-04-26T15:52:26.248Z,1010.41
2023-04-26T15:57:27.039Z,1010.52
2023-04-26T16:02:27.715Z,1010.49
2023-04-26T16:07:28.525Z,1010.53
2023-04-26T16:12:29.311Z,1010.67
2023-04-26T16:17:30.017Z,1010.63
2023-04-26T16:22:30.733Z,1010.69
2023-04-26T16:27:31.373Z,1010.67
2023-04-26T16:32:32.198Z,1010.63
2023-04-26T16:37:39.849Z,1010.61
2023-04-26T16:42:33.498Z,1010.54
2023-04-26T16:47:34.152Z,1010.53
2023-04-26T16:52:34.788Z,1010.55
2023-04-26T16:57:35.498Z,1010.56
2023-04-26T17:02:36.390Z,1010.58
2023-04-26T17:07:36.599Z,1010.61
2023-04-26T17:12:37.251Z,1010.61
2023-04-26T17:17:38.075Z,1010.67
2023-04-26T17:22:38.738Z,1010.66
2023-04-26T17:27:39.368Z,1010.74
2023-04-26T17:32:40.083Z,1010.78
2023-04-26T17:37:40.757Z,1010.79
2023-04-26T17:42:41.427Z,1010.82
2023-04-26T17:47:42.144Z,1010.84
2023-04-26T17:52:42.777Z,1010.86
2023-04-26T17:57:43.495Z,1010.88
2023-04-26T18:02:44.360Z,1010.93
2023-04-26T18:07:44.613Z,1010.98
2023-04-26T18:12:45.298Z,1011.02
2023-04-26T18:17:46.072Z,1011.09
2023-04-26T18:22:46.684Z,1011.13
2023-04-26T18:27:47.381Z,1011.14
2023-04-26T18:32:48.089Z,1011.21
2023-04-26T18:37:48.724Z,1011.26
2023-04-26T18:42:49.441Z,1011.30
2023-04-26T18:47:50.118Z,1011.33
2023-04-26T18:52:50.749Z,1011.39
2023-04-26T18:57:51.420Z,1011.44
2023-04-26T19:02:52.183Z,1011.51
2023-04-26T19:07:52.973Z,1011.54
2023-04-26T19:12:53.709Z,1011.59
2023-04-26T19:17:54.437Z,1011.63
2023-04-26T19:22:55.111Z,1011.64
2023-04-26T19:27:55.843Z,1011.62
2023-04-26T19:32:56.561Z,1011.61
2023-04-26T19:37:57.229Z,1011.65
2023-04-26T19:42:57.954Z,1011.67
2023-04-26T19:47:58.664Z,1011.71
2023-04-26T19:52:59.379Z,1011.73
2023-04-26T19:58:00.140Z,1011.74
2023-04-26T20:03:00.898Z,1011.77
2023-04-26T20:08:01.725Z,1011.78
2023-04-26T20:13:02.430Z,1011.82
2023-04-26T20:18:03.171Z,1011.84
2023-04-26T20:23:03.863Z,1011.85
2023-04-26T20:28:04.600Z,1011.89
2023-04-26T20:33:05.324Z,1011.92
2023-04-26T20:38:06.004Z,1011.94
2023-04-26T20:43:06.767Z,1011.95
2023-04-26T20:48:07.550Z,1011.93
2023-04-26T20:53:08.223Z,1011.92
2023-04-26T20:58:08.949Z,1011.93
2023-04-26T21:03:09.793Z,1011.96
2023-04-26T21:08:10.513Z,1011.93
2023-04-26T21:13:11.245Z,1011.92
2023-04-26T21:18:11.926Z,1011.92
2023-04-26T21:23:12.641Z,1011.94
2023-04-26T21:28:13.344Z,1011.93
2023-04-26T21:33:14.210Z,1011.92
2023-04-26T21:38:14.860Z,1011.97
2023-04-26T21:43:15.576Z,1012.00
2023-04-26T21:48:16.302Z,1012.01
2023-04-26T21:53:17.009Z,1012.01
2023-04-26T21:58:17.702Z,1012.02
2023-04-26T22:03:18.664Z,1012.04
2023-04-26T22:08:19.027Z,1012.05
2023-04-26T22:13:19.716Z,1012.11
2023-04-26T22:18:20.421Z,1012.16
2023-04-26T22:23:21.144Z,1012.26
2023-04-26T22:28:21.843Z,1012.33
2023-04-26T22:33:22.526Z,1012.37
2023-04-26T22:38:30.242Z,1012.41
2023-04-26T22:43:23.940Z,1012.47
2023-04-26T22:48:24.638Z,1012.49
2023-04-26T22:53:25.343Z,1012.49
2023-04-26T22:58:26.076Z,1012.49
2023-04-26T23:03:26.857Z,1012.51
2023-04-26T23:08:27.535Z,1012.52
2023-04-26T23:13:28.274Z,1012.54
2023-04-26T23:18:28.980Z,1012.58
2023-04-26T23:23:29.707Z,1012.66
2023-04-26T23:28:30.486Z,1012.66
2023-04-26T23:33:31.175Z,1012.67
2023-04-26T23:38:31.865Z,1012.66
2023-04-26T23:43:32.589Z,1012.62
2023-04-26T23:48:33.278Z,1012.61
2023-04-26T23:53:34.019Z,1012.59
2023-04-26T23:58:34.733Z,1012.58
